sensor_id;sensor_type;location;lat;lon;timestamp;P1;durP1;ratioP1;P2;durP2;ratioP2
55316;SDS011;41178;48.956;8.130;2023-07-16T00:02:39;2.13;;;1.90;;
55316;SDS011;41178;48.956;8.130;2023-07-16T00:07:41;2.60;;;1.70;;
55316;SDS011;41178;48.956;8.130;2023-07-16T00:12:43;1.90;;;1.65;;
55316;SDS011;41178;48.956;8.130;2023-07-16T00:17:45;2.03;;;1.60;;
55316;SDS011;41178;48.956;8.130;2023-07-16T00:22:46;1.70;;;1.60;;
55316;SDS011;41178;48.956;8.130;2023-07-16T00:27:48;2.85;;;1.60;;
55316;SDS011;41178;48.956;8.130;2023-07-16T00:32:50;1.60;;;1.50;;
55316;SDS011;41178;48.956;8.130;2023-07-16T00:37:52;1.77;;;1.60;;
55316;SDS011;41178;48.956;8.130;2023-07-16T00:42:54;1.70;;;1.50;;
55316;SDS011;41178;48.956;8.130;2023-07-16T00:47:56;2.90;;;1.77;;
55316;SDS011;41178;48.956;8.130;2023-07-16T00:52:59;1.90;;;1.50;;
55316;SDS011;41178;48.956;8.130;2023-07-16T00:58:03;1.83;;;1.65;;
55316;SDS011;41178;48.956;8.130;2023-07-16T01:03:07;1.60;;;1.48;;
55316;SDS011;41178;48.956;8.130;2023-07-16T01:08:14;3.22;;;1.60;;
55316;SDS011;41178;48.956;8.130;2023-07-16T01:13:28;3.45;;;1.50;;
55316;SDS011;41178;48.956;8.130;2023-07-16T01:18:30;1.92;;;1.40;;
55316;SDS011;41178;48.956;8.130;2023-07-16T01:24:21;3.70;;;1.75;;
55316;SDS011;41178;48.956;8.130;2023-07-16T01:34:18;2.80;;;1.83;;
55316;SDS011;41178;48.956;8.130;2023-07-16T01:39:22;2.00;;;1.80;;
55316;SDS011;41178;48.956;8.130;2023-07-16T01:44:24;2.85;;;1.48;;
55316;SDS011;41178;48.956;8.130;2023-07-16T01:49:25;1.60;;;1.50;;
55316;SDS011;41178;48.956;8.130;2023-07-16T01:54:27;1.85;;;1.50;;
55316;SDS011;41178;48.956;8.130;2023-07-16T01:59:29;3.58;;;1.60;;
55316;SDS011;41178;48.956;8.130;2023-07-16T02:04:31;1.40;;;1.30;;
55316;SDS011;41178;48.956;8.130;2023-07-16T02:09:33;1.75;;;1.40;;
55316;SDS011;41178;48.956;8.130;2023-07-16T02:14:36;1.40;;;1.30;;
55316;SDS011;41178;48.956;8.130;2023-07-16T02:19:38;1.42;;;1.33;;
55316;SDS011;41178;48.956;8.130;2023-07-16T02:24:40;2.63;;;1.75;;
55316;SDS011;41178;48.956;8.130;2023-07-16T02:29:42;3.95;;;1.73;;
55316;SDS011;41178;48.956;8.130;2023-07-16T02:34:44;2.70;;;1.70;;
55316;SDS011;41178;48.956;8.130;2023-07-16T02:39:45;2.03;;;1.83;;
55316;SDS011;41178;48.956;8.130;2023-07-16T02:44:50;1.83;;;1.50;;
55316;SDS011;41178;48.956;8.130;2023-07-16T02:49:52;3.40;;;1.70;;
55316;SDS011;41178;48.956;8.130;2023-07-16T02:54:54;2.20;;;1.70;;
55316;SDS011;41178;48.956;8.130;2023-07-16T02:59:56;2.77;;;1.67;;
55316;SDS011;41178;48.956;8.130;2023-07-16T03:04:57;3.70;;;2.10;;
55316;SDS011;41178;48.956;8.130;2023-07-16T03:09:59;2.00;;;1.80;;
55316;SDS011;41178;48.956;8.130;2023-07-16T03:15:02;1.90;;;1.80;;
55316;SDS011;41178;48.956;8.130;2023-07-16T03:20:04;2.20;;;1.73;;
55316;SDS011;41178;48.956;8.130;2023-07-16T03:25:07;1.55;;;1.45;;
55316;SDS011;41178;48.956;8.130;2023-07-16T03:30:09;2.20;;;1.65;;
55316;SDS011;41178;48.956;8.130;2023-07-16T03:35:11;2.22;;;2.03;;
55316;SDS011;41178;48.956;8.130;2023-07-16T03:40:18;3.47;;;1.80;;
55316;SDS011;41178;48.956;8.130;2023-07-16T03:45:25;2.85;;;1.98;;
55316;SDS011;41178;48.956;8.130;2023-07-16T03:50:27;3.08;;;1.83;;
55316;SDS011;41178;48.956;8.130;2023-07-16T03:55:29;1.88;;;1.52;;
55316;SDS011;41178;48.956;8.130;2023-07-16T04:00:31;2.40;;;1.73;;
55316;SDS011;41178;48.956;8.130;2023-07-16T04:05:34;2.25;;;1.95;;
55316;SDS011;41178;48.956;8.130;2023-07-16T04:10:36;4.03;;;1.77;;
55316;SDS011;41178;48.956;8.130;2023-07-16T04:15:37;2.03;;;1.67;;
55316;SDS011;41178;48.956;8.130;2023-07-16T04:20:39;2.65;;;1.80;;
55316;SDS011;41178;48.956;8.130;2023-07-16T04:25:41;2.70;;;1.80;;
55316;SDS011;41178;48.956;8.130;2023-07-16T04:30:43;2.10;;;1.90;;
55316;SDS011;41178;48.956;8.130;2023-07-16T04:35:45;2.13;;;2.00;;
55316;SDS011;41178;48.956;8.130;2023-07-16T04:40:47;2.57;;;1.97;;
55316;SDS011;41178;48.956;8.130;2023-07-16T04:45:48;3.00;;;1.93;;
55316;SDS011;41178;48.956;8.130;2023-07-16T04:50:50;3.30;;;1.90;;
55316;SDS011;41178;48.956;8.130;2023-07-16T04:55:53;3.33;;;2.00;;
55316;SDS011;41178;48.956;8.130;2023-07-16T05:00:55;2.43;;;2.20;;
55316;SDS011;41178;48.956;8.130;2023-07-16T05:05:57;2.03;;;1.77;;
55316;SDS011;41178;48.956;8.130;2023-07-16T05:10:59;6.28;;;1.80;;
55316;SDS011;41178;48.956;8.130;2023-07-16T05:16:01;1.90;;;1.80;;
55316;SDS011;41178;48.956;8.130;2023-07-16T05:21:02;1.80;;;1.70;;
55316;SDS011;41178;48.956;8.130;2023-07-16T05:26:04;1.50;;;1.40;;
55316;SDS011;41178;48.956;8.130;2023-07-16T05:31:06;2.27;;;1.60;;
55316;SDS011;41178;48.956;8.130;2023-07-16T05:36:08;2.03;;;1.73;;
55316;SDS011;41178;48.956;8.130;2023-07-16T05:41:10;2.43;;;1.63;;
55316;SDS011;41178;48.956;8.130;2023-07-16T05:46:12;2.60;;;2.20;;
55316;SDS011;41178;48.956;8.130;2023-07-16T05:51:14;4.07;;;2.08;;
55316;SDS011;41178;48.956;8.130;2023-07-16T05:56:16;2.30;;;1.90;;
55316;SDS011;41178;48.956;8.130;2023-07-16T06:01:18;2.43;;;1.60;;
55316;SDS011;41178;48.956;8.130;2023-07-16T06:06:20;2.45;;;1.63;;
55316;SDS011;41178;48.956;8.130;2023-07-16T06:11:22;2.17;;;1.63;;
55316;SDS011;41178;48.956;8.130;2023-07-16T06:16:24;2.37;;;1.60;;
55316;SDS011;41178;48.956;8.130;2023-07-16T06:21:26;3.28;;;1.85;;
55316;SDS011;41178;48.956;8.130;2023-07-16T06:26:27;4.05;;;1.80;;
55316;SDS011;41178;48.956;8.130;2023-07-16T06:31:29;1.80;;;1.70;;
55316;SDS011;41178;48.956;8.130;2023-07-16T06:36:31;1.90;;;1.70;;
55316;SDS011;41178;48.956;8.130;2023-07-16T06:41:33;1.63;;;1.52;;
55316;SDS011;41178;48.956;8.130;2023-07-16T06:46:34;1.83;;;1.67;;
55316;SDS011;41178;48.956;8.130;2023-07-16T06:51:36;4.15;;;2.00;;
55316;SDS011;41178;48.956;8.130;2023-07-16T06:56:38;4.55;;;1.52;;
55316;SDS011;41178;48.956;8.130;2023-07-16T07:01:40;3.85;;;1.65;;
55316;SDS011;41178;48.956;8.130;2023-07-16T07:06:42;4.65;;;1.48;;
55316;SDS011;41178;48.956;8.130;2023-07-16T07:11:44;2.67;;;1.67;;
55316;SDS011;41178;48.956;8.130;2023-07-16T07:16:46;1.98;;;1.70;;
55316;SDS011;41178;48.956;8.130;2023-07-16T07:21:48;2.85;;;1.70;;
55316;SDS011;41178;48.956;8.130;2023-07-16T07:26:49;3.45;;;2.08;;
55316;SDS011;41178;48.956;8.130;2023-07-16T07:31:52;2.15;;;1.70;;
55316;SDS011;41178;48.956;8.130;2023-07-16T07:36:54;4.18;;;1.90;;
55316;SDS011;41178;48.956;8.130;2023-07-16T07:41:56;2.85;;;1.75;;
55316;SDS011;41178;48.956;8.130;2023-07-16T07:46:57;3.60;;;1.77;;
55316;SDS011;41178;48.956;8.130;2023-07-16T07:51:59;3.80;;;1.60;;
55316;SDS011;41178;48.956;8.130;2023-07-16T07:57:02;3.92;;;1.92;;
55316;SDS011;41178;48.956;8.130;2023-07-16T08:02:06;6.65;;;2.17;;
55316;SDS011;41178;48.956;8.130;2023-07-16T08:07:08;7.22;;;2.13;;
55316;SDS011;41178;48.956;8.130;2023-07-16T08:12:10;2.25;;;1.60;;
55316;SDS011;41178;48.956;8.130;2023-07-16T08:17:15;4.25;;;2.10;;
55316;SDS011;41178;48.956;8.130;2023-07-16T08:22:17;2.70;;;1.73;;
55316;SDS011;41178;48.956;8.130;2023-07-16T08:27:18;4.45;;;1.95;;
55316;SDS011;41178;48.956;8.130;2023-07-16T08:32:21;2.92;;;1.70;;
55316;SDS011;41178;48.956;8.130;2023-07-16T08:37:23;4.28;;;1.95;;
55316;SDS011;41178;48.956;8.130;2023-07-16T08:42:25;4.78;;;2.22;;
55316;SDS011;41178;48.956;8.130;2023-07-16T08:47:26;2.95;;;2.05;;
55316;SDS011;41178;48.956;8.130;2023-07-16T08:52:28;3.38;;;2.35;;
55316;SDS011;41178;48.956;8.130;2023-07-16T08:57:30;6.05;;;2.67;;
55316;SDS011;41178;48.956;8.130;2023-07-16T09:02:33;5.78;;;2.47;;
55316;SDS011;41178;48.956;8.130;2023-07-16T09:07:35;4.05;;;2.42;;
55316;SDS011;41178;48.956;8.130;2023-07-16T09:12:42;3.70;;;2.38;;
55316;SDS011;41178;48.956;8.130;2023-07-16T09:17:48;4.82;;;2.40;;
55316;SDS011;41178;48.956;8.130;2023-07-16T09:22:53;5.78;;;2.17;;
55316;SDS011;41178;48.956;8.130;2023-07-16T09:28:01;4.22;;;1.90;;
55316;SDS011;41178;48.956;8.130;2023-07-16T09:33:11;4.88;;;2.38;;
55316;SDS011;41178;48.956;8.130;2023-07-16T09:38:14;4.00;;;2.20;;
55316;SDS011;41178;48.956;8.130;2023-07-16T09:43:15;3.03;;;1.90;;
55316;SDS011;41178;48.956;8.130;2023-07-16T09:48:17;5.78;;;1.98;;
55316;SDS011;41178;48.956;8.130;2023-07-16T09:53:20;5.20;;;2.25;;
55316;SDS011;41178;48.956;8.130;2023-07-16T09:58:23;4.38;;;2.20;;
55316;SDS011;41178;48.956;8.130;2023-07-16T10:03:26;6.22;;;2.55;;
55316;SDS011;41178;48.956;8.130;2023-07-16T10:08:32;2.70;;;1.70;;
55316;SDS011;41178;48.956;8.130;2023-07-16T10:13:37;6.40;;;2.53;;
55316;SDS011;41178;48.956;8.130;2023-07-16T10:18:39;6.88;;;2.08;;
55316;SDS011;41178;48.956;8.130;2023-07-16T10:23:58;3.92;;;2.13;;
55316;SDS011;41178;48.956;8.130;2023-07-16T10:29:04;3.33;;;2.38;;
55316;SDS011;41178;48.956;8.130;2023-07-16T10:34:06;7.72;;;2.08;;
55316;SDS011;41178;48.956;8.130;2023-07-16T10:39:09;3.10;;;1.83;;
55316;SDS011;41178;48.956;8.130;2023-07-16T10:44:14;4.45;;;2.05;;
55316;SDS011;41178;48.956;8.130;2023-07-16T10:49:26;4.75;;;2.22;;
55316;SDS011;41178;48.956;8.130;2023-07-16T10:54:28;3.35;;;1.92;;
55316;SDS011;41178;48.956;8.130;2023-07-16T10:59:30;7.00;;;2.42;;
55316;SDS011;41178;48.956;8.130;2023-07-16T11:06:21;3.65;;;1.88;;
55316;SDS011;41178;48.956;8.130;2023-07-16T11:11:28;3.70;;;2.08;;
55316;SDS011;41178;48.956;8.130;2023-07-16T11:16:35;2.35;;;1.80;;
55316;SDS011;41178;48.956;8.130;2023-07-16T11:21:37;3.80;;;1.80;;
55316;SDS011;41178;48.956;8.130;2023-07-16T11:26:40;6.30;;;2.83;;
55316;SDS011;41178;48.956;8.130;2023-07-16T11:31:41;4.50;;;2.05;;
55316;SDS011;41178;48.956;8.130;2023-07-16T11:36:43;6.03;;;2.42;;
55316;SDS011;41178;48.956;8.130;2023-07-16T11:41:57;4.05;;;2.17;;
55316;SDS011;41178;48.956;8.130;2023-07-16T11:47:00;5.13;;;2.25;;
55316;SDS011;41178;48.956;8.130;2023-07-16T11:52:03;3.13;;;1.98;;
55316;SDS011;41178;48.956;8.130;2023-07-16T11:57:05;4.32;;;1.80;;
55316;SDS011;41178;48.956;8.130;2023-07-16T12:02:07;5.05;;;2.40;;
55316;SDS011;41178;48.956;8.130;2023-07-16T12:07:10;5.57;;;2.20;;
55316;SDS011;41178;48.956;8.130;2023-07-16T12:12:11;4.55;;;2.38;;
55316;SDS011;41178;48.956;8.130;2023-07-16T12:17:13;5.93;;;2.55;;
55316;SDS011;41178;48.956;8.130;2023-07-16T12:22:16;4.32;;;1.92;;
55316;SDS011;41178;48.956;8.130;2023-07-16T12:27:18;2.67;;;1.75;;
55316;SDS011;41178;48.956;8.130;2023-07-16T12:32:21;2.80;;;1.98;;
55316;SDS011;41178;48.956;8.130;2023-07-16T12:37:23;3.05;;;1.80;;
55316;SDS011;41178;48.956;8.130;2023-07-16T12:42:25;3.42;;;1.80;;
55316;SDS011;41178;48.956;8.130;2023-07-16T12:47:27;3.40;;;2.17;;
55316;SDS011;41178;48.956;8.130;2023-07-16T12:52:28;3.20;;;1.98;;
55316;SDS011;41178;48.956;8.130;2023-07-16T12:57:30;4.43;;;2.00;;
55316;SDS011;41178;48.956;8.130;2023-07-16T13:02:33;3.85;;;2.03;;
55316;SDS011;41178;48.956;8.130;2023-07-16T13:07:35;6.65;;;2.50;;
55316;SDS011;41178;48.956;8.130;2023-07-16T13:12:39;4.50;;;1.90;;
55316;SDS011;41178;48.956;8.130;2023-07-16T13:17:41;4.00;;;2.15;;
55316;SDS011;41178;48.956;8.130;2023-07-16T13:22:43;3.55;;;1.92;;
55316;SDS011;41178;48.956;8.130;2023-07-16T13:27:45;2.78;;;1.98;;
55316;SDS011;41178;48.956;8.130;2023-07-16T13:32:46;4.80;;;2.50;;
55316;SDS011;41178;48.956;8.130;2023-07-16T13:37:50;5.75;;;3.00;;
55316;SDS011;41178;48.956;8.130;2023-07-16T13:42:52;2.70;;;2.03;;
55316;SDS011;41178;48.956;8.130;2023-07-16T13:47:54;5.13;;;2.70;;
55316;SDS011;41178;48.956;8.130;2023-07-16T13:52:56;2.97;;;1.90;;
55316;SDS011;41178;48.956;8.130;2023-07-16T13:58:02;3.03;;;2.38;;
55316;SDS011;41178;48.956;8.130;2023-07-16T14:03:04;2.55;;;1.90;;
55316;SDS011;41178;48.956;8.130;2023-07-16T14:08:06;4.13;;;2.58;;
55316;SDS011;41178;48.956;8.130;2023-07-16T14:13:09;3.67;;;1.92;;
55316;SDS011;41178;48.956;8.130;2023-07-16T14:18:10;3.95;;;1.67;;
55316;SDS011;41178;48.956;8.130;2023-07-16T14:23:12;4.47;;;2.10;;
55316;SDS011;41178;48.956;8.130;2023-07-16T14:28:14;2.67;;;1.58;;
55316;SDS011;41178;48.956;8.130;2023-07-16T14:33:16;4.90;;;1.92;;
55316;SDS011;41178;48.956;8.130;2023-07-16T14:38:18;3.67;;;1.98;;
55316;SDS011;41178;48.956;8.130;2023-07-16T14:43:19;2.78;;;1.85;;
55316;SDS011;41178;48.956;8.130;2023-07-16T14:48:21;4.38;;;2.35;;
55316;SDS011;41178;48.956;8.130;2023-07-16T14:53:24;4.55;;;2.30;;
55316;SDS011;41178;48.956;8.130;2023-07-16T14:58:25;3.83;;;2.10;;
55316;SDS011;41178;48.956;8.130;2023-07-16T15:03:27;3.95;;;1.88;;
55316;SDS011;41178;48.956;8.130;2023-07-16T15:08:29;7.97;;;2.45;;
55316;SDS011;41178;48.956;8.130;2023-07-16T15:13:31;3.63;;;2.28;;
55316;SDS011;41178;48.956;8.130;2023-07-16T15:18:33;3.65;;;2.00;;
55316;SDS011;41178;48.956;8.130;2023-07-16T15:23:34;3.30;;;2.17;;
55316;SDS011;41178;48.956;8.130;2023-07-16T15:28:36;3.38;;;1.85;;
55316;SDS011;41178;48.956;8.130;2023-07-16T15:33:39;4.47;;;2.17;;
55316;SDS011;41178;48.956;8.130;2023-07-16T15:38:41;3.65;;;1.73;;
55316;SDS011;41178;48.956;8.130;2023-07-16T15:43:42;3.55;;;2.00;;
55316;SDS011;41178;48.956;8.130;2023-07-16T15:48:46;4.55;;;2.08;;
55316;SDS011;41178;48.956;8.130;2023-07-16T15:53:52;5.55;;;2.00;;
55316;SDS011;41178;48.956;8.130;2023-07-16T15:58:55;5.25;;;2.20;;
55316;SDS011;41178;48.956;8.130;2023-07-16T16:03:56;3.85;;;2.03;;
55316;SDS011;41178;48.956;8.130;2023-07-16T16:08:58;5.05;;;2.15;;
55316;SDS011;41178;48.956;8.130;2023-07-16T16:14:00;3.22;;;1.80;;
55316;SDS011;41178;48.956;8.130;2023-07-16T16:19:02;2.13;;;1.75;;
55316;SDS011;41178;48.956;8.130;2023-07-16T16:24:04;3.28;;;1.98;;
55316;SDS011;41178;48.956;8.130;2023-07-16T16:29:06;3.45;;;2.08;;
55316;SDS011;41178;48.956;8.130;2023-07-16T16:34:08;4.30;;;2.10;;
55316;SDS011;41178;48.956;8.130;2023-07-16T16:39:10;3.75;;;2.00;;
55316;SDS011;41178;48.956;8.130;2023-07-16T16:44:12;5.55;;;2.20;;
55316;SDS011;41178;48.956;8.130;2023-07-16T16:49:13;3.28;;;2.05;;
55316;SDS011;41178;48.956;8.130;2023-07-16T16:54:15;4.70;;;1.90;;
55316;SDS011;41178;48.956;8.130;2023-07-16T16:59:17;4.15;;;1.80;;
55316;SDS011;41178;48.956;8.130;2023-07-16T17:04:18;3.30;;;1.75;;
55316;SDS011;41178;48.956;8.130;2023-07-16T17:09:20;4.03;;;2.10;;
55316;SDS011;41178;48.956;8.130;2023-07-16T17:14:22;3.83;;;1.80;;
55316;SDS011;41178;48.956;8.130;2023-07-16T17:19:24;4.15;;;2.05;;
55316;SDS011;41178;48.956;8.130;2023-07-16T17:24:25;2.80;;;1.80;;
55316;SDS011;41178;48.956;8.130;2023-07-16T17:29:27;6.22;;;2.35;;
55316;SDS011;41178;48.956;8.130;2023-07-16T17:34:32;2.50;;;1.83;;
55316;SDS011;41178;48.956;8.130;2023-07-16T17:39:35;3.00;;;2.00;;
55316;SDS011;41178;48.956;8.130;2023-07-16T17:44:37;3.80;;;2.30;;
55316;SDS011;41178;48.956;8.130;2023-07-16T17:49:39;3.80;;;2.28;;
55316;SDS011;41178;48.956;8.130;2023-07-16T17:54:41;4.63;;;1.88;;
55316;SDS011;41178;48.956;8.130;2023-07-16T17:59:44;4.90;;;2.13;;
55316;SDS011;41178;48.956;8.130;2023-07-16T18:04:45;4.40;;;2.25;;
55316;SDS011;41178;48.956;8.130;2023-07-16T18:09:48;3.75;;;2.15;;
55316;SDS011;41178;48.956;8.130;2023-07-16T18:14:54;2.95;;;1.80;;
55316;SDS011;41178;48.956;8.130;2023-07-16T18:19:56;2.90;;;1.98;;
55316;SDS011;41178;48.956;8.130;2023-07-16T18:24:59;2.60;;;1.83;;
55316;SDS011;41178;48.956;8.130;2023-07-16T18:30:02;2.45;;;1.60;;
55316;SDS011;41178;48.956;8.130;2023-07-16T18:35:09;3.97;;;1.83;;
55316;SDS011;41178;48.956;8.130;2023-07-16T18:40:11;4.25;;;1.85;;
55316;SDS011;41178;48.956;8.130;2023-07-16T18:45:13;2.47;;;1.90;;
55316;SDS011;41178;48.956;8.130;2023-07-16T18:50:15;5.38;;;1.90;;
55316;SDS011;41178;48.956;8.130;2023-07-16T18:55:17;3.97;;;1.85;;
55316;SDS011;41178;48.956;8.130;2023-07-16T19:00:21;6.35;;;2.08;;
55316;SDS011;41178;48.956;8.130;2023-07-16T19:05:23;3.80;;;2.30;;
55316;SDS011;41178;48.956;8.130;2023-07-16T19:10:25;2.50;;;1.70;;
55316;SDS011;41178;48.956;8.130;2023-07-16T19:15:27;3.40;;;2.20;;
55316;SDS011;41178;48.956;8.130;2023-07-16T19:20:29;2.63;;;2.00;;
55316;SDS011;41178;48.956;8.130;2023-07-16T19:25:30;2.58;;;1.95;;
55316;SDS011;41178;48.956;8.130;2023-07-16T19:30:32;3.28;;;2.03;;
55316;SDS011;41178;48.956;8.130;2023-07-16T19:35:34;2.33;;;1.70;;
55316;SDS011;41178;48.956;8.130;2023-07-16T19:40:36;3.33;;;2.10;;
55316;SDS011;41178;48.956;8.130;2023-07-16T19:45:38;3.53;;;1.95;;
55316;SDS011;41178;48.956;8.130;2023-07-16T19:50:40;3.95;;;2.05;;
55316;SDS011;41178;48.956;8.130;2023-07-16T19:55:49;3.80;;;2.30;;
55316;SDS011;41178;48.956;8.130;2023-07-16T20:00:51;3.60;;;2.28;;
55316;SDS011;41178;48.956;8.130;2023-07-16T20:05:53;3.97;;;2.20;;
55316;SDS011;41178;48.956;8.130;2023-07-16T20:10:55;2.97;;;2.00;;
55316;SDS011;41178;48.956;8.130;2023-07-16T20:15:57;6.63;;;2.30;;
55316;SDS011;41178;48.956;8.130;2023-07-16T20:20:58;4.05;;;2.50;;
55316;SDS011;41178;48.956;8.130;2023-07-16T20:26:00;4.80;;;2.38;;
55316;SDS011;41178;48.956;8.130;2023-07-16T20:31:04;3.40;;;2.50;;
55316;SDS011;41178;48.956;8.130;2023-07-16T20:36:07;4.25;;;2.20;;
55316;SDS011;41178;48.956;8.130;2023-07-16T20:41:09;6.15;;;2.50;;
55316;SDS011;41178;48.956;8.130;2023-07-16T20:46:12;3.45;;;2.60;;
55316;SDS011;41178;48.956;8.130;2023-07-16T20:51:13;6.22;;;2.70;;
55316;SDS011;41178;48.956;8.130;2023-07-16T20:56:15;6.13;;;3.00;;
55316;SDS011;41178;48.956;8.130;2023-07-16T21:01:17;6.18;;;2.65;;
55316;SDS011;41178;48.956;8.130;2023-07-16T21:06:20;5.28;;;2.35;;
55316;SDS011;41178;48.956;8.130;2023-07-16T21:11:22;5.38;;;2.28;;
55316;SDS011;41178;48.956;8.130;2023-07-16T21:16:24;3.40;;;2.40;;
55316;SDS011;41178;48.956;8.130;2023-07-16T21:21:26;3.70;;;2.22;;
55316;SDS011;41178;48.956;8.130;2023-07-16T21:26:28;3.45;;;2.30;;
55316;SDS011;41178;48.956;8.130;2023-07-16T21:31:29;5.40;;;2.30;;
55316;SDS011;41178;48.956;8.130;2023-07-16T21:36:31;4.22;;;2.75;;
55316;SDS011;41178;48.956;8.130;2023-07-16T21:41:33;3.10;;;2.15;;
55316;SDS011;41178;48.956;8.130;2023-07-16T21:46:35;5.70;;;2.53;;
55316;SDS011;41178;48.956;8.130;2023-07-16T21:51:37;3.92;;;2.35;;
55316;SDS011;41178;48.956;8.130;2023-07-16T21:56:38;2.85;;;2.22;;
55316;SDS011;41178;48.956;8.130;2023-07-16T22:01:40;4.47;;;2.38;;
55316;SDS011;41178;48.956;8.130;2023-07-16T22:06:42;4.63;;;2.70;;
55316;SDS011;41178;48.956;8.130;2023-07-16T22:11:43;4.35;;;2.50;;
55316;SDS011;41178;48.956;8.130;2023-07-16T22:16:45;4.65;;;2.60;;
55316;SDS011;41178;48.956;8.130;2023-07-16T22:21:48;2.38;;;2.13;;
55316;SDS011;41178;48.956;8.130;2023-07-16T22:26:49;3.08;;;2.38;;
55316;SDS011;41178;48.956;8.130;2023-07-16T22:31:51;3.80;;;2.92;;
55316;SDS011;41178;48.956;8.130;2023-07-16T22:36:53;5.07;;;2.25;;
55316;SDS011;41178;48.956;8.130;2023-07-16T22:41:55;4.25;;;2.55;;
55316;SDS011;41178;48.956;8.130;2023-07-16T22:46:56;3.15;;;2.50;;
55316;SDS011;41178;48.956;8.130;2023-07-16T22:51:58;5.57;;;2.60;;
55316;SDS011;41178;48.956;8.130;2023-07-16T22:57:00;3.30;;;2.58;;
55316;SDS011;41178;48.956;8.130;2023-07-16T23:02:01;5.38;;;2.67;;
55316;SDS011;41178;48.956;8.130;2023-07-16T23:07:03;4.57;;;2.72;;
55316;SDS011;41178;48.956;8.130;2023-07-16T23:12:05;6.53;;;2.65;;
55316;SDS011;41178;48.956;8.130;2023-07-16T23:17:07;3.42;;;2.30;;
55316;SDS011;41178;48.956;8.130;2023-07-16T23:22:08;6.13;;;2.70;;
55316;SDS011;41178;48.956;8.130;2023-07-16T23:27:10;4.55;;;2.65;;
55316;SDS011;41178;48.956;8.130;2023-07-16T23:32:13;3.47;;;2.58;;
55316;SDS011;41178;48.956;8.130;2023-07-16T23:37:15;5.22;;;2.70;;
55316;SDS011;41178;48.956;8.130;2023-07-16T23:42:16;4.18;;;2.72;;
55316;SDS011;41178;48.956;8.130;2023-07-16T23:47:18;4.22;;;2.58;;
55316;SDS011;41178;48.956;8.130;2023-07-16T23:52:20;3.33;;;2.70;;
55316;SDS011;41178;48.956;8.130;2023-07-16T23:57:22;4.57;;;2.95;;
